Time;durP1;ratioP1;P1;durP2;ratioP2;P2;SDS_P1;SDS_P2;PMS_P1;PMS_P2;Temp;Humidity;BMP_temperature;BMP_pressure;BME280_temperature;BME280_humidity;BME280_pressure;Samples;Min_cycle;Max_cycle;Signal;HPM_P1;HPM_P2
2021/06/06 00:02:57;;;;;;;8.43;7.50;;;;;;;13.02;56.22;100516.63;154762;1101;103231;-81
2021/06/06 00:06:04;;;;;;;9.27;7.63;;;;;;;13.01;55.62;100520.28;154710;1101;103132;-83
2021/06/06 00:09:13;;;;;;;9.57;7.70;;;;;;;12.93;55.45;100505.89;154621;1101;103202;-81
2021/06/06 00:12:17;;;;;;;10.00;7.47;;;;;;;12.93;56.22;100505.89;154072;1093;103194;-81
2021/06/06 00:15:21;;;;;;;10.48;7.63;;;;;;;12.90;55.83;100508.88;153989;1101;103088;-81
2021/06/06 00:18:25;;;;;;;8.77;7.17;;;;;;;12.87;56.30;100503.83;154016;1093;103191;-81
2021/06/06 00:21:30;;;;;;;9.10;7.50;;;;;;;12.85;56.04;100500.48;154078;1101;103162;-84
2021/06/06 00:24:36;;;;;;;10.10;7.70;;;;;;;12.84;55.60;100506.85;154067;1101;103193;-82
2021/06/06 00:27:41;;;;;;;10.40;7.85;;;;;;;12.80;56.33;100508.18;153988;1101;103168;-83
2021/06/06 00:30:45;;;;;;;9.47;8.00;;;;;;;12.78;56.04;100507.50;154098;1101;103192;-81
2021/06/06 00:33:49;;;;;;;9.58;7.73;;;;;;;12.71;55.82;100504.62;154136;1101;103274;-80
2021/06/06 00:36:55;;;;;;;11.30;7.88;;;;;;;12.64;55.99;100502.74;154020;1101;103123;-79
2021/06/06 00:39:59;;;;;;;11.38;8.50;;;;;;;12.64;56.47;100500.06;154001;1093;103257;-81
2021/06/06 00:43:03;;;;;;;9.08;7.88;;;;;;;12.62;56.06;100502.06;153949;1101;103196;-79
2021/06/06 00:46:09;;;;;;;9.33;7.70;;;;;;;12.58;55.88;100493.52;154114;1095;103113;-81
2021/06/06 00:49:14;;;;;;;10.75;8.88;;;;;;;12.54;56.75;100498.34;154096;1093;103295;-81
2021/06/06 00:52:20;;;;;;;11.05;8.60;;;;;;;12.53;55.83;100493.17;153984;1097;103144;-78
2021/06/06 00:55:25;;;;;;;12.75;9.25;;;;;;;12.50;56.13;100490.80;154007;1093;103192;-80
2021/06/06 00:58:30;;;;;;;9.83;8.00;;;;;;;12.45;56.69;100483.27;153945;1093;103124;-80
2021/06/06 01:01:34;;;;;;;9.50;7.70;;;;;;;12.39;56.69;100489.23;153995;1095;103126;-81
2021/06/06 01:04:40;;;;;;;8.97;7.93;;;;;;;12.30;56.20;100491.04;154088;1101;103308;-81
2021/06/06 01:07:45;;;;;;;9.83;8.07;;;;;;;12.24;56.90;100494.36;154384;1093;103211;-81
2021/06/06 01:10:57;;;;;;;9.30;7.45;;;;;;;12.20;56.72;100489.45;154021;1093;103520;-81
2021/06/06 01:14:06;;;;;;;10.10;8.33;;;;;;;12.20;56.88;100489.45;154097;1093;103125;-82
2021/06/06 01:17:21;;;;;;;9.30;7.78;;;;;;;12.15;56.99;100482.75;154158;1101;103084;-80
2021/06/06 01:20:42;;;;;;;10.15;8.50;;;;;;;12.14;56.99;100489.11;154045;1093;103203;-81
2021/06/06 01:24:21;;;;;;;10.40;8.70;;;;;;;12.15;57.32;100481.92;153987;1101;103183;-83
2021/06/06 01:27:31;;;;;;;9.53;8.53;;;;;;;12.11;56.78;100486.73;154079;1101;103551;-83
2021/06/06 01:30:42;;;;;;;10.45;8.60;;;;;;;12.06;57.00;100483.69;153992;1101;103190;-81
2021/06/06 01:33:54;;;;;;;9.53;7.55;;;;;;;12.04;57.00;100488.36;154095;1093;103115;-81
2021/06/06 01:37:06;;;;;;;10.68;8.65;;;;;;;12.03;56.95;100485.83;154117;1093;103313;-79
2021/06/06 01:40:15;;;;;;;12.45;8.95;;;;;;;11.99;56.92;100488.01;154204;1101;103133;-84
2021/06/06 01:43:24;;;;;;;11.30;8.90;;;;;;;11.94;57.06;100495.65;154054;1101;103126;-82
2021/06/06 01:46:37;;;;;;;10.07;8.67;;;;;;;11.90;57.62;100494.28;153976;1101;103195;-82
2021/06/06 01:49:48;;;;;;;11.37;8.70;;;;;;;11.85;57.60;100499.22;153999;1093;103094;-79
2021/06/06 01:52:59;;;;;;;9.98;8.50;;;;;;;11.83;57.16;100502.05;154209;1093;103381;-79
2021/06/06 01:56:07;;;;;;;10.25;8.55;;;;;;;11.79;57.27;100509.53;154223;1097;103154;-81
2021/06/06 01:59:31;;;;;;;10.50;8.43;;;;;;;11.75;57.55;100507.33;154053;1101;103568;-81
2021/06/06 02:02:39;;;;;;;10.40;8.55;;;;;;;11.72;57.62;100511.16;154096;1101;103190;-82
2021/06/06 02:05:44;;;;;;;9.40;8.37;;;;;;;11.70;57.04;100510.48;154128;1093;103163;-80
2021/06/06 02:08:51;;;;;;;11.35;8.68;;;;;;;11.66;57.48;100514.43;154030;1094;103569;-79
2021/06/06 02:12:03;;;;;;;11.33;8.65;;;;;;;11.64;57.16;100505.72;154144;1095;103128;-79
2021/06/06 02:15:18;;;;;;;9.85;8.73;;;;;;;11.66;57.24;100503.73;154119;1096;103210;-83
2021/06/06 02:18:30;;;;;;;11.70;9.33;;;;;;;11.66;57.15;100502.91;154244;1101;103120;-83
2021/06/06 02:21:40;;;;;;;10.27;7.97;;;;;;;11.67;57.79;100510.78;154722;1101;103108;-83
2021/06/06 02:24:46;;;;;;;11.33;8.73;;;;;;;11.65;57.35;100511.94;154534;1101;103197;-78
2021/06/06 02:28:02;;;;;;;10.33;8.68;;;;;;;11.66;57.26;100501.06;154075;1097;103212;-82
2021/06/06 02:31:13;;;;;;;10.13;8.33;;;;;;;11.67;57.22;100505.43;154139;1093;103192;-78
2021/06/06 02:34:24;;;;;;;9.80;8.58;;;;;;;11.67;57.43;100505.43;154018;1101;103131;-78
2021/06/06 02:37:33;;;;;;;11.33;8.97;;;;;;;11.67;57.14;100502.76;153998;1095;103132;-76
2021/06/06 02:40:44;;;;;;;10.18;8.75;;;;;;;11.66;57.80;100498.39;153999;1093;103273;-76
2021/06/06 02:43:55;;;;;;;9.40;8.43;;;;;;;11.68;56.85;100498.24;154041;1101;103192;-81
2021/06/06 02:47:03;;;;;;;9.80;8.30;;;;;;;11.61;57.47;100499.88;153961;1101;103132;-82
2021/06/06 02:50:16;;;;;;;10.38;8.60;;;;;;;11.59;57.47;100502.70;153944;1101;103164;-82
2021/06/06 02:53:25;;;;;;;11.20;8.58;;;;;;;11.62;57.69;100501.53;154092;1095;103123;-83
2021/06/06 02:56:33;;;;;;;12.00;8.90;;;;;;;11.65;57.60;100502.07;154101;1096;103120;-80
2021/06/06 02:59:46;;;;;;;10.58;8.30;;;;;;;11.67;58.36;100497.41;154176;1094;103273;-83
2021/06/06 03:02:58;;;;;;;12.53;8.87;;;;;;;11.68;57.85;100501.78;154405;1101;103204;-82
2021/06/06 03:06:07;;;;;;;10.63;9.07;;;;;;;11.69;57.63;100498.09;154478;1101;103215;-76
2021/06/06 03:09:14;;;;;;;9.77;8.40;;;;;;;11.77;57.76;100506.17;153980;1101;103125;-77
2021/06/06 03:12:21;;;;;;;11.40;8.97;;;;;;;11.89;58.15;100505.93;154020;1097;103253;-75
2021/06/06 03:15:30;;;;;;;11.33;9.53;;;;;;;12.10;57.99;100505.62;154002;1096;103254;-74
2021/06/06 03:18:40;;;;;;;10.80;8.33;;;;;;;12.32;58.21;100502.42;153957;1101;103196;-74
2021/06/06 03:21:47;;;;;;;10.90;8.15;;;;;;;12.65;57.87;100504.44;154231;1101;103227;-80
2021/06/06 03:24:56;;;;;;;10.50;8.77;;;;;;;13.01;57.43;100504.21;154444;1101;103115;-80
2021/06/06 03:28:02;;;;;;;12.35;9.23;;;;;;;13.31;57.17;100509.02;154251;1095;103275;-81
2021/06/06 03:31:12;;;;;;;9.85;8.73;;;;;;;13.53;57.29;100510.23;154061;1096;103152;-80
2021/06/06 03:34:17;;;;;;;11.10;9.80;;;;;;;13.85;57.30;100499.67;154033;1101;103195;-80
2021/06/06 03:37:26;;;;;;;10.05;8.95;;;;;;;14.19;57.22;100501.32;153972;1101;103113;-80
2021/06/06 03:40:38;;;;;;;10.28;9.25;;;;;;;14.51;57.21;100503.06;153992;1101;103193;-80
2021/06/06 03:43:54;;;;;;;10.18;9.08;;;;;;;14.80;57.04;100501.64;153990;1093;103283;-81
2021/06/06 03:46:59;;;;;;;9.63;8.43;;;;;;;15.07;56.91;100498.51;154049;1101;103134;-80
2021/06/06 03:50:07;;;;;;;11.03;9.70;;;;;;;15.35;57.03;100502.54;154015;1097;103250;-80
2021/06/06 03:53:13;;;;;;;9.87;8.70;;;;;;;15.55;56.57;100498.38;153975;1097;103198;-81
2021/06/06 03:56:18;;;;;;;9.57;8.53;;;;;;;15.78;56.85;100501.08;154096;1096;103128;-83
2021/06/06 03:59:25;;;;;;;9.80;8.40;;;;;;;16.03;56.61;100501.69;155054;1093;103121;-83
2021/06/06 04:02:31;;;;;;;9.53;8.43;;;;;;;16.23;56.69;100504.68;155247;1101;103203;-81
2021/06/06 04:05:38;;;;;;;9.60;8.60;;;;;;;16.46;56.26;100506.47;155890;1101;103603;-82
2021/06/06 04:08:43;;;;;;;11.00;9.33;;;;;;;16.67;56.19;100500.34;154167;1093;103196;-84
2021/06/06 04:11:52;;;;;;;11.73;8.50;;;;;;;16.87;56.67;100506.83;154165;1095;103126;-84
2021/06/06 04:14:57;;;;;;;11.53;9.53;;;;;;;17.14;56.65;100507.16;154351;1093;103206;-83
2021/06/06 04:18:13;;;;;;;11.03;9.13;;;;;;;17.35;56.45;100510.91;154031;1093;103178;-84
2021/06/06 04:21:20;;;;;;;10.53;8.87;;;;;;;17.56;56.45;100518.19;154098;1101;103187;-81
2021/06/06 04:24:25;;;;;;;12.75;11.45;;;;;;;17.70;56.80;100517.27;154104;1096;103173;-79
2021/06/06 04:27:32;;;;;;;12.97;10.77;;;;;;;17.76;57.00;100511.09;154004;1095;103144;-78
2021/06/06 04:30:37;;;;;;;14.83;12.13;;;;;;;17.90;57.08;100517.50;154009;1093;103199;-79
2021/06/06 04:33:44;;;;;;;13.67;11.77;;;;;;;17.99;57.17;100519.00;153962;1093;103103;-82
2021/06/06 04:36:50;;;;;;;13.37;11.97;;;;;;;18.15;57.27;100512.50;154166;1101;103486;-81
2021/06/06 04:39:58;;;;;;;15.30;13.20;;;;;;;18.22;57.08;100512.53;154062;1101;103136;-84
2021/06/06 04:43:04;;;;;;;16.07;13.37;;;;;;;18.25;57.08;100502.17;154471;1096;103120;-81
2021/06/06 04:46:09;;;;;;;15.10;13.50;;;;;;;18.23;56.97;100514.22;154278;1101;103272;-82
2021/06/06 04:49:14;;;;;;;14.80;13.13;;;;;;;18.28;57.20;100508.21;154097;1096;103199;-83
2021/06/06 04:52:20;;;;;;;17.00;12.70;;;;;;;18.31;57.13;100505.95;154149;1101;103053;-83
2021/06/06 04:55:27;;;;;;;13.07;11.77;;;;;;;18.35;57.10;100512.63;154241;1097;103152;-83
2021/06/06 04:58:35;;;;;;;14.67;12.10;;;;;;;18.37;57.18;100512.44;154499;1101;103128;-81
2021/06/06 05:01:43;;;;;;;12.60;11.10;;;;;;;18.41;57.02;100506.42;154047;1096;103279;-81
2021/06/06 05:04:50;;;;;;;12.73;11.13;;;;;;;18.44;57.12;100507.92;154003;1096;103203;-82
2021/06/06 05:07:59;;;;;;;11.27;10.17;;;;;;;18.57;57.25;100507.14;154094;1101;103200;-82
2021/06/06 05:11:05;;;;;;;12.80;10.05;;;;;;;18.71;56.77;100514.30;153988;1097;103196;-82
2021/06/06 05:14:13;;;;;;;14.07;11.03;;;;;;;18.78;56.72;100506.20;153979;1097;103244;-82
2021/06/06 05:17:19;;;;;;;12.70;10.00;;;;;;;18.87;56.56;100505.04;153970;1095;103298;-81
2021/06/06 05:20:35;;;;;;;10.35;9.15;;;;;;;18.95;56.48;100523.78;154051;1096;103133;-81
2021/06/06 05:23:40;;;;;;;9.98;8.95;;;;;;;19.08;56.05;100528.42;154195;1101;103136;-83
2021/06/06 05:26:47;;;;;;;10.90;9.80;;;;;;;19.11;56.30;100525.33;153895;1097;103195;-82
2021/06/06 05:29:52;;;;;;;12.97;10.77;;;;;;;19.14;56.40;100524.91;153995;1095;103133;-81
2021/06/06 05:32:57;;;;;;;11.70;10.50;;;;;;;19.15;56.30;100523.88;153996;1097;103263;-81
2021/06/06 05:36:04;;;;;;;12.20;9.90;;;;;;;19.29;56.44;100519.34;154009;1101;103133;-77
2021/06/06 05:39:11;;;;;;;11.73;9.30;;;;;;;19.39;55.97;100522.48;153964;1101;103245;-76
2021/06/06 05:42:16;;;;;;;10.20;8.90;;;;;;;19.50;55.77;100528.34;153940;1101;103130;-77
2021/06/06 05:45:23;;;;;;;9.18;8.20;;;;;;;19.52;55.76;100527.09;153932;1096;103094;-76
2021/06/06 05:48:28;;;;;;;11.78;8.65;;;;;;;19.62;55.49;100527.52;153949;1101;103644;-77
2021/06/06 05:51:33;;;;;;;12.87;8.43;;;;;;;19.70;55.71;100512.95;154437;1097;103825;-81
2021/06/06 05:54:49;;;;;;;8.65;7.75;;;;;;;19.72;55.26;100518.20;154278;1101;103133;-85
2021/06/06 05:57:54;;;;;;;8.27;6.77;;;;;;;19.72;54.99;100510.91;154330;1095;103107;-89
2021/06/06 06:00:58;;;;;;;7.60;6.90;;;;;;;19.77;55.22;100513.00;154330;1101;103298;-87
2021/06/06 06:04:04;;;;;;;8.83;7.93;;;;;;;19.85;55.34;100510.09;154297;1096;103316;-82
2021/06/06 06:07:08;;;;;;;9.03;8.00;;;;;;;19.87;55.25;100524.25;154481;1101;103200;-77
2021/06/06 06:10:18;;;;;;;9.97;7.20;;;;;;;19.87;54.52;100512.59;154505;1096;103117;-80
2021/06/06 06:13:25;;;;;;;8.23;7.40;;;;;;;19.89;55.02;100515.92;154131;1095;103212;-77
2021/06/06 06:16:33;;;;;;;7.83;7.03;;;;;;;19.89;54.98;100527.58;154109;1101;103499;-71
2021/06/06 06:19:38;;;;;;;8.63;7.40;;;;;;;19.83;54.56;100517.59;153886;1101;103289;-68
2021/06/06 06:22:42;;;;;;;7.67;6.90;;;;;;;19.83;54.73;100525.70;153851;1097;103140;-70
2021/06/06 06:25:47;;;;;;;9.65;7.60;;;;;;;19.86;54.73;100516.33;153795;1101;103115;-72
2021/06/06 06:28:52;;;;;;;8.28;6.70;;;;;;;19.89;54.96;100527.58;153849;1096;103197;-72
2021/06/06 06:32:16;;;;;;;7.95;6.25;;;;;;;19.93;54.35;100526.13;153824;1095;103129;-69
2021/06/06 06:35:23;;;;;;;6.88;6.10;;;;;;;19.91;54.46;100528.20;153820;1095;103305;-70
2021/06/06 06:38:29;;;;;;;7.33;6.50;;;;;;;19.93;54.20;100528.83;153876;1096;103204;-71
2021/06/06 06:41:36;;;;;;;7.90;5.83;;;;;;;19.96;54.67;100525.72;153824;1101;103139;-71
2021/06/06 06:44:40;;;;;;;10.13;7.13;;;;;;;20.03;54.48;100527.58;153835;1101;103216;-70
2021/06/06 06:47:50;;;;;;;7.65;6.83;;;;;;;20.02;54.50;100532.17;153843;1101;103100;-71
2021/06/06 06:50:57;;;;;;;8.15;7.35;;;;;;;20.06;54.37;100525.30;153808;1096;103301;-72
2021/06/06 06:54:02;;;;;;;10.43;6.58;;;;;;;20.10;54.29;100528.42;154025;1097;103213;-72
2021/06/06 06:57:07;;;;;;;7.33;6.30;;;;;;;20.13;54.07;100520.72;153976;1101;103194;-71
2021/06/06 07:00:17;;;;;;;7.98;6.65;;;;;;;20.14;54.22;100518.83;153826;1101;103195;-75
2021/06/06 07:03:26;;;;;;;10.45;6.25;;;;;;;20.21;54.33;100519.67;153973;1101;103147;-74
2021/06/06 07:06:32;;;;;;;6.30;5.70;;;;;;;20.25;53.96;100523.63;153959;1101;103218;-76
2021/06/06 07:09:37;;;;;;;8.08;5.55;;;;;;;20.29;53.74;100527.57;153995;1101;103502;-72
2021/06/06 07:12:42;;;;;;;6.25;4.98;;;;;;;20.33;53.86;100528.81;154236;1095;103191;-71
2021/06/06 07:15:47;;;;;;;7.30;6.00;;;;;;;20.39;53.58;100525.25;154004;1096;103176;-72
2021/06/06 07:18:52;;;;;;;7.60;5.33;;;;;;;20.49;53.71;100513.14;153958;1097;103108;-73
2021/06/06 07:21:56;;;;;;;7.57;5.70;;;;;;;20.63;53.91;100517.53;153976;1101;103298;-73
2021/06/06 07:25:01;;;;;;;7.33;5.95;;;;;;;20.72;54.02;100510.81;153952;1101;103117;-73
2021/06/06 07:28:08;;;;;;;7.48;5.80;;;;;;;20.76;53.35;100516.64;154007;1097;103142;-73
2021/06/06 07:31:13;;;;;;;7.53;5.60;;;;;;;20.82;53.20;100515.78;153963;1101;103589;-75
2021/06/06 07:34:18;;;;;;;6.43;5.27;;;;;;;20.92;53.46;100508.05;153995;1101;103215;-73
2021/06/06 07:37:23;;;;;;;6.17;5.57;;;;;;;20.99;53.37;100514.25;154051;1101;103261;-68
2021/06/06 07:40:31;;;;;;;5.00;4.50;;;;;;;21.08;53.00;100514.85;153855;1101;103576;-73
2021/06/06 07:43:36;;;;;;;8.73;5.10;;;;;;;21.17;52.44;100523.55;154062;1101;103192;-73
2021/06/06 07:46:40;;;;;;;10.93;5.40;;;;;;;21.27;52.35;100523.94;153964;1093;103195;-75
2021/06/06 07:49:45;;;;;;;7.47;4.70;;;;;;;21.36;52.66;100516.36;154104;1093;103500;-73
2021/06/06 07:52:50;;;;;;;7.00;4.23;;;;;;;21.47;52.37;100525.73;154045;1101;103307;-74
2021/06/06 07:55:56;;;;;;;7.88;4.38;;;;;;;21.55;52.29;100520.86;154178;1101;103096;-73
2021/06/06 07:59:01;;;;;;;5.17;4.03;;;;;;;21.64;51.22;100515.19;153964;1093;103190;-73
2021/06/06 08:02:07;;;;;;;6.03;4.10;;;;;;;21.67;51.36;100522.88;153917;1101;103195;-73
2021/06/06 08:05:13;;;;;;;8.30;3.83;;;;;;;21.73;51.11;100517.41;154169;1101;103249;-73
2021/06/06 08:08:18;;;;;;;4.93;3.87;;;;;;;21.81;51.41;100512.77;154006;1101;103310;-73
2021/06/06 08:11:24;;;;;;;4.65;3.70;;;;;;;21.90;50.53;100517.71;153943;1100;103103;-74
2021/06/06 08:14:28;;;;;;;4.53;3.53;;;;;;;21.93;49.83;100522.68;153933;1101;103192;-73
2021/06/06 08:17:33;;;;;;;5.67;3.73;;;;;;;21.97;50.67;100506.77;153912;1101;103137;-73
2021/06/06 08:20:43;;;;;;;6.33;4.03;;;;;;;22.02;50.75;100511.53;153959;1093;103221;-73
2021/06/06 08:23:48;;;;;;;5.27;4.20;;;;;;;22.05;50.30;100509.20;153833;1093;103196;-74
2021/06/06 08:26:53;;;;;;;5.20;4.20;;;;;;;22.07;50.39;100512.52;154026;1101;103190;-73
2021/06/06 08:29:57;;;;;;;6.33;4.20;;;;;;;22.13;50.00;100514.38;154046;1101;103128;-73
2021/06/06 08:33:02;;;;;;;5.10;3.93;;;;;;;22.21;49.81;100518.70;153968;1095;103128;-73
2021/06/06 08:36:11;;;;;;;4.48;3.73;;;;;;;22.30;49.39;100520.08;153982;1101;103147;-74
2021/06/06 08:39:20;;;;;;;8.05;3.50;;;;;;;22.38;49.63;100515.41;154042;1093;103397;-74
2021/06/06 08:42:32;;;;;;;6.47;3.93;;;;;;;22.40;49.84;100514.13;153947;1093;103130;-73
2021/06/06 08:45:46;;;;;;;5.73;4.23;;;;;;;22.44;49.15;100519.95;153979;1101;103216;-74
2021/06/06 08:48:51;;;;;;;5.70;3.90;;;;;;;22.48;49.25;100518.44;153955;1093;103120;-74
2021/06/06 08:52:11;;;;;;;4.73;3.77;;;;;;;22.55;48.42;100506.43;153938;1101;103079;-73
2021/06/06 08:55:32;;;;;;;4.13;3.37;;;;;;;22.72;49.17;100511.28;153901;1093;103484;-73
2021/06/06 08:58:43;;;;;;;5.23;3.40;;;;;;;22.76;48.63;100514.38;154022;1101;103120;-73
2021/06/06 09:01:55;;;;;;;5.13;3.20;;;;;;;22.63;48.73;100510.73;153878;1093;103116;-73
2021/06/06 09:05:00;;;;;;;5.60;3.53;;;;;;;22.62;48.40;100517.25;153897;1101;103112;-73
2021/06/06 09:08:07;;;;;;;5.15;3.10;;;;;;;22.69;47.31;100507.14;153967;1093;103516;-73
2021/06/06 09:11:15;;;;;;;4.37;3.17;;;;;;;22.61;47.96;100507.41;153978;1093;103299;-73
2021/06/06 09:14:20;;;;;;;5.20;3.20;;;;;;;22.57;47.96;100511.66;153994;1093;103586;-74
2021/06/06 09:17:39;;;;;;;5.33;3.45;;;;;;;22.73;48.23;100494.73;153982;1101;103192;-72
2021/06/06 09:20:46;;;;;;;5.10;3.30;;;;;;;22.88;47.58;100490.78;153928;1093;103091;-72
2021/06/06 09:24:02;;;;;;;5.55;3.70;;;;;;;23.03;47.24;100499.41;153984;1101;103199;-74
2021/06/06 09:27:17;;;;;;;4.13;3.23;;;;;;;23.04;46.43;100495.64;153855;1093;103236;-74
2021/06/06 09:30:22;;;;;;;3.50;2.63;;;;;;;23.00;47.39;100494.41;153929;1093;103280;-75
2021/06/06 09:33:30;;;;;;;6.35;3.08;;;;;;;23.15;47.16;100501.36;153965;1101;103115;-73
2021/06/06 09:36:40;;;;;;;4.20;3.20;;;;;;;23.16;46.60;100498.41;154027;1101;103148;-71
2021/06/06 09:39:51;;;;;;;4.07;2.97;;;;;;;23.30;46.55;100488.98;154012;1097;103132;-72
2021/06/06 09:42:55;;;;;;;4.33;2.90;;;;;;;23.62;45.05;100486.00;153948;1093;103148;-74
2021/06/06 09:46:09;;;;;;;4.45;2.78;;;;;;;23.78;45.90;100489.11;154092;1101;103200;-73
2021/06/06 09:49:30;;;;;;;3.60;2.60;;;;;;;23.97;44.42;100487.15;153880;1101;103219;-73
2021/06/06 09:52:42;;;;;;;3.30;2.55;;;;;;;24.04;45.25;100485.15;153989;1101;103196;-72
2021/06/06 09:55:48;;;;;;;3.23;2.60;;;;;;;24.17;45.50;100487.61;153982;1101;103186;-73
2021/06/06 09:58:55;;;;;;;6.20;2.80;;;;;;;24.26;44.81;100478.00;154005;1096;103186;-73
2021/06/06 10:02:24;;;;;;;3.20;2.60;;;;;;;24.50;44.93;100469.81;154049;1101;103241;-72
2021/06/06 10:05:33;;;;;;;4.68;2.93;;;;;;;24.71;44.58;100478.44;153871;1101;103115;-72
2021/06/06 10:08:37;;;;;;;4.05;3.20;;;;;;;24.56;44.25;100485.25;153977;1093;103152;-73
2021/06/06 10:11:57;;;;;;;4.33;2.77;;;;;;;24.29;44.41;100485.72;153997;1096;103116;-71
2021/06/06 10:15:06;;;;;;;3.90;2.60;;;;;;;23.94;43.90;100484.88;153976;1101;103369;-72
2021/06/06 10:18:17;;;;;;;4.45;2.75;;;;;;;23.70;43.82;100482.11;154020;1101;103128;-73
2021/06/06 10:21:24;;;;;;;4.65;2.73;;;;;;;23.64;44.25;100475.70;153974;1101;103311;-72
2021/06/06 10:24:36;;;;;;;3.58;2.70;;;;;;;23.74;44.12;100475.13;153946;1101;103119;-73
2021/06/06 10:27:44;;;;;;;4.50;2.80;;;;;;;23.89;42.72;100470.08;153948;1101;103159;-72
2021/06/06 10:30:57;;;;;;;3.70;2.70;;;;;;;24.06;42.02;100470.20;153930;1093;103110;-73
2021/06/06 10:34:07;;;;;;;4.88;2.63;;;;;;;24.20;42.13;100468.06;154059;1093;103125;-73
2021/06/06 10:37:14;;;;;;;7.60;2.83;;;;;;;24.21;42.17;100466.16;153985;1094;103158;-73
2021/06/06 10:40:32;;;;;;;3.73;2.60;;;;;;;24.19;42.41;100462.84;153935;1096;103190;-73
2021/06/06 10:43:43;;;;;;;6.00;2.58;;;;;;;24.36;41.76;100454.77;153956;1101;103134;-72
2021/06/06 10:46:51;;;;;;;4.60;2.75;;;;;;;24.59;42.04;100453.92;153995;1093;103192;-73
2021/06/06 10:49:59;;;;;;;3.67;2.70;;;;;;;24.77;40.69;100463.83;153857;1093;103195;-72
2021/06/06 10:53:20;;;;;;;4.03;2.50;;;;;;;24.84;42.47;100456.33;154138;1093;103560;-73
2021/06/06 10:56:52;;;;;;;4.73;2.73;;;;;;;24.91;42.07;100459.76;153993;1101;103155;-73
2021/06/06 11:00:19;;;;;;;3.00;2.50;;;;;;;25.04;42.07;100466.84;155731;1095;103148;-72
2021/06/06 11:03:28;;;;;;;3.43;2.28;;;;;;;25.03;38.60;100451.52;154073;1096;103267;-73
2021/06/06 11:06:37;;;;;;;5.90;2.70;;;;;;;25.03;40.86;100451.52;154022;1096;103201;-73
2021/06/06 11:09:41;;;;;;;3.60;2.23;;;;;;;25.17;41.40;100452.86;154335;1093;103192;-73
2021/06/06 11:12:48;;;;;;;5.30;2.60;;;;;;;25.28;39.21;100453.91;154089;1097;103578;-72
2021/06/06 11:16:00;;;;;;;2.50;2.23;;;;;;;25.34;40.40;100446.64;153950;1093;103146;-71
2021/06/06 11:19:09;;;;;;;8.27;2.30;;;;;;;25.41;39.89;100447.32;153933;1094;103304;-71
2021/06/06 11:22:30;;;;;;;3.20;2.40;;;;;;;25.42;39.73;100444.34;154314;1101;103187;-75
2021/06/06 11:25:44;;;;;;;3.17;2.53;;;;;;;25.28;39.89;100445.72;154208;1093;103242;-75
2021/06/06 11:28:50;;;;;;;2.60;2.20;;;;;;;25.02;39.82;100445.23;154107;1095;103188;-77
2021/06/06 11:32:08;;;;;;;2.88;2.50;;;;;;;25.17;40.39;100441.94;154151;1101;103557;-76
2021/06/06 11:35:23;;;;;;;4.25;2.50;;;;;;;25.44;39.12;100442.20;154035;1101;103178;-75
2021/06/06 11:38:43;;;;;;;2.68;2.43;;;;;;;25.50;39.55;100440.38;154123;1101;103125;-80
2021/06/06 11:41:48;;;;;;;4.65;2.70;;;;;;;25.66;38.80;100427.78;154267;1101;103161;-77
2021/06/06 11:44:55;;;;;;;3.30;2.87;;;;;;;25.61;38.46;100425.78;154103;1096;103195;-78
2021/06/06 11:48:08;;;;;;;3.00;2.30;;;;;;;25.74;39.47;100429.27;154027;1095;103179;-79
2021/06/06 11:51:22;;;;;;;3.17;2.40;;;;;;;25.86;38.70;100424.53;154251;1095;103557;-71
2021/06/06 11:54:31;;;;;;;4.00;2.60;;;;;;;25.87;37.81;100420.73;154153;1101;103193;-72
2021/06/06 11:57:40;;;;;;;4.00;2.50;;;;;;;25.77;36.66;100428.75;153997;1096;103133;-78
2021/06/06 12:00:47;;;;;;;3.53;2.40;;;;;;;25.74;37.22;100426.54;153788;1101;103477;-72
2021/06/06 12:04:05;;;;;;;2.60;2.40;;;;;;;25.72;36.85;100421.31;154044;1095;103195;-72
2021/06/06 12:07:17;;;;;;;4.07;2.30;;;;;;;25.80;37.19;100412.69;153790;1101;103165;-72
2021/06/06 12:10:34;;;;;;;2.95;2.00;;;;;;;25.96;36.41;100411.06;154152;1095;103560;-71
2021/06/06 12:13:40;;;;;;;2.27;1.93;;;;;;;25.94;34.91;100404.98;153948;1101;103103;-73
2021/06/06 12:16:53;;;;;;;3.50;2.00;;;;;;;25.88;33.79;100400.50;154046;1101;103192;-72
2021/06/06 12:20:00;;;;;;;3.53;2.40;;;;;;;25.91;34.95;100399.19;154009;1097;103191;-72
2021/06/06 12:23:12;;;;;;;4.47;2.10;;;;;;;25.94;34.99;100406.91;154015;1101;103313;-72
2021/06/06 12:26:23;;;;;;;3.88;2.55;;;;;;;25.90;36.41;100400.25;154016;1101;103474;-72
2021/06/06 12:29:31;;;;;;;3.43;1.97;;;;;;;25.93;35.48;100405.27;153985;1096;103130;-73
2021/06/06 12:32:39;;;;;;;3.73;2.20;;;;;;;25.89;35.86;100401.35;154027;1096;103219;-73
2021/06/06 12:35:47;;;;;;;4.15;2.43;;;;;;;25.68;35.35;100409.23;154030;1101;103253;-72
2021/06/06 12:38:57;;;;;;;2.83;2.13;;;;;;;25.43;35.90;100399.55;153927;1095;103752;-72
2021/06/06 12:42:05;;;;;;;2.50;2.27;;;;;;;25.30;35.76;100402.60;153983;1101;103593;-72
2021/06/06 12:45:16;;;;;;;3.47;2.03;;;;;;;25.37;36.25;100400.55;154063;1101;103118;-71
2021/06/06 12:48:28;;;;;;;;;;;;;;;25.55;35.93;100390.44;153860;1101;103145;-72
2021/06/06 12:51:36;;;;;;;;;;;;;;;25.59;33.23;100386.13;153994;1101;103119;-73
2021/06/06 12:54:42;;;;;;;3.27;2.07;;;;;;;25.53;35.06;100389.87;153953;1101;103267;-72
2021/06/06 12:57:54;;;;;;;2.68;2.13;;;;;;;25.34;34.94;100390.10;153976;1101;103134;-72
2021/06/06 13:01:08;;;;;;;2.23;2.00;;;;;;;25.19;35.58;100395.27;153986;1095;103163;-72
2021/06/06 13:04:21;;;;;;;4.50;2.20;;;;;;;25.17;35.98;100400.16;154054;1096;103133;-71
2021/06/06 13:07:29;;;;;;;4.47;2.00;;;;;;;25.22;35.68;100386.60;153951;1095;103107;-72
2021/06/06 13:10:36;;;;;;;3.48;2.33;;;;;;;25.04;34.45;100396.67;153971;1101;103269;-72
2021/06/06 13:13:45;;;;;;;7.50;2.10;;;;;;;25.06;35.32;100399.16;153930;1096;103668;-72
2021/06/06 13:17:01;;;;;;;4.57;2.00;;;;;;;25.22;33.18;100389.33;153959;1101;103135;-72
2021/06/06 13:20:19;;;;;;;3.07;1.80;;;;;;;25.28;34.18;100393.83;153828;1096;103205;-72
2021/06/06 13:23:35;;;;;;;4.10;2.07;;;;;;;25.18;34.50;100393.63;154293;1097;103117;-72
2021/06/06 13:26:42;;;;;;;3.70;2.25;;;;;;;25.14;34.80;100392.47;153958;1096;103221;-74
2021/06/06 13:29:49;;;;;;;2.23;1.87;;;;;;;25.10;34.08;100392.13;154315;1095;103154;-71
2021/06/06 13:33:01;;;;;;;4.33;2.20;;;;;;;25.08;34.26;100389.64;154125;1101;103658;-72
2021/06/06 13:36:07;;;;;;;2.73;1.90;;;;;;;25.14;33.93;100392.47;154053;1101;103047;-73
2021/06/06 13:39:17;;;;;;;2.65;2.00;;;;;;;25.13;33.13;100390.80;154017;1101;103198;-73
2021/06/06 13:42:25;;;;;;;3.17;2.00;;;;;;;25.18;34.42;100390.91;154028;1096;103246;-73
2021/06/06 13:45:32;;;;;;;3.13;2.20;;;;;;;25.13;33.70;100385.34;154105;1101;103165;-73
2021/06/06 13:48:39;;;;;;;3.70;2.10;;;;;;;25.05;33.25;100392.85;153986;1095;103195;-73
2021/06/06 13:51:43;;;;;;;2.73;2.13;;;;;;;25.02;33.11;100379.71;154069;1096;103129;-72
2021/06/06 13:54:48;;;;;;;4.03;1.70;;;;;;;25.00;33.40;100389.20;153958;1094;103128;-73
2021/06/06 13:57:52;;;;;;;4.03;1.93;;;;;;;24.96;32.01;100394.34;153899;1101;103313;-76
2021/06/06 14:00:57;;;;;;;2.53;2.05;;;;;;;24.92;33.11;100389.61;153986;1101;103113;-75
2021/06/06 14:04:02;;;;;;;3.10;2.10;;;;;;;24.91;33.59;100387.97;154226;1097;103199;-72
2021/06/06 14:07:07;;;;;;;2.77;2.30;;;;;;;24.86;33.56;100385.95;153990;1101;103122;-72
2021/06/06 14:10:16;;;;;;;4.00;2.33;;;;;;;24.89;33.08;100385.48;154027;1093;103115;-73
2021/06/06 14:13:29;;;;;;;3.80;2.30;;;;;;;24.87;33.77;100384.89;154098;1096;103200;-74
2021/06/06 14:16:37;;;;;;;3.05;2.38;;;;;;;24.81;32.86;100383.97;154136;1101;103138;-75